createdAt,value
2018-11-21T00:00:19.804Z,36.08
2018-11-21T00:00:56.392Z,27.62
2018-11-21T00:01:33.076Z,26.48
2018-11-21T00:02:09.763Z,31.33
2018-11-21T00:02:46.443Z,32.25
2018-11-21T00:03:23.059Z,31.70
2018-11-21T00:04:01.033Z,28.65
2018-11-21T00:04:37.754Z,28.50
2018-11-21T00:05:14.394Z,27.30
2018-11-21T00:05:50.950Z,26.00
2018-11-21T00:06:27.543Z,27.10
2018-11-21T00:07:04.269Z,29.00
2018-11-21T00:07:40.947Z,31.00
2018-11-21T00:08:17.500Z,30.40
2018-11-21T00:08:54.198Z,26.62
2018-11-21T00:09:30.947Z,30.65
2018-11-21T00:10:10.017Z,28.17
2018-11-21T00:10:46.726Z,34.48
2018-11-21T00:11:23.412Z,30.57
2018-11-21T00:11:59.993Z,30.85
2018-11-21T00:12:36.537Z,28.25
2018-11-21T00:13:13.321Z,32.65
2018-11-21T00:13:50.056Z,31.95
2018-11-21T00:14:29.671Z,26.37
2018-11-21T00:15:06.699Z,28.07
2018-11-21T00:15:46.312Z,29.37
2018-11-21T00:16:23.034Z,32.00
2018-11-21T00:16:59.601Z,30.35
2018-11-21T00:17:36.286Z,29.32
2018-11-21T00:18:14.012Z,28.70
2018-11-21T00:18:50.650Z,31.20
2018-11-21T00:19:27.288Z,31.62
2018-11-21T00:20:03.997Z,29.02
2018-11-21T00:20:40.577Z,30.10
2018-11-21T00:21:17.314Z,27.67
2018-11-21T00:21:53.927Z,34.27
2018-11-21T00:22:30.593Z,27.70
2018-11-21T00:23:07.283Z,33.23
2018-11-21T00:23:43.932Z,29.00
2018-11-21T00:24:20.650Z,31.10
2018-11-21T00:24:57.354Z,28.62
2018-11-21T00:25:34.009Z,31.70
2018-11-21T00:26:10.606Z,29.82
2018-11-21T00:26:47.240Z,33.78
2018-11-21T00:27:24.024Z,30.85
2018-11-21T00:28:02.946Z,27.75
2018-11-21T00:28:39.559Z,33.63
2018-11-21T00:29:16.147Z,31.55
2018-11-21T00:29:52.785Z,29.75
2018-11-21T00:30:29.467Z,30.77
2018-11-21T00:31:06.174Z,29.95
2018-11-21T00:31:42.790Z,32.00
2018-11-21T00:32:23.497Z,26.70
2018-11-21T00:33:00.054Z,30.37
2018-11-21T00:33:36.803Z,30.52
2018-11-21T00:34:14.369Z,29.82
2018-11-21T00:34:51.325Z,34.25
2018-11-21T00:35:27.967Z,31.15
2018-11-21T00:36:04.710Z,30.85
2018-11-21T00:36:41.363Z,27.97
2018-11-21T00:37:18.555Z,32.17
2018-11-21T00:37:55.164Z,27.87
2018-11-21T00:38:31.753Z,33.15
2018-11-21T00:39:11.237Z,30.17
2018-11-21T00:39:47.939Z,35.17
2018-11-21T00:40:24.642Z,30.07
2018-11-21T00:41:01.402Z,34.33
2018-11-21T00:41:40.307Z,30.30
2018-11-21T00:42:16.936Z,29.67
2018-11-21T00:42:53.706Z,31.45
2018-11-21T00:43:30.413Z,28.95
2018-11-21T00:44:07.255Z,32.05
2018-11-21T00:44:44.265Z,32.25
2018-11-21T00:45:20.910Z,30.10
2018-11-21T00:45:57.577Z,30.77
2018-11-21T00:46:34.275Z,31.80
2018-11-21T00:47:11.010Z,32.33
2018-11-21T00:47:47.546Z,26.48
2018-11-21T00:48:24.259Z,37.20
2018-11-21T00:49:01.135Z,29.35
2018-11-21T00:49:37.813Z,30.65
2018-11-21T00:50:14.990Z,30.65
2018-11-21T00:50:51.699Z,29.37
2018-11-21T00:51:28.301Z,29.18
2018-11-21T00:52:05.013Z,28.00
2018-11-21T00:52:41.609Z,33.73
2018-11-21T00:53:18.363Z,28.57
2018-11-21T00:53:55.022Z,26.95
2018-11-21T00:54:31.669Z,32.73
2018-11-21T00:55:08.866Z,30.88
2018-11-21T00:55:45.638Z,33.60
2018-11-21T00:56:22.233Z,28.55
2018-11-21T00:57:00.071Z,28.30
2018-11-21T00:57:35.575Z,28.85
2018-11-21T00:58:12.180Z,36.53
2018-11-21T00:58:48.829Z,34.50
2018-11-21T00:59:25.562Z,33.20
2018-11-21T01:00:02.209Z,27.98
2018-11-21T01:00:38.995Z,29.00
2018-11-21T01:01:15.690Z,28.70
2018-11-21T01:01:52.472Z,29.98
2018-11-21T01:02:29.138Z,30.82
2018-11-21T01:03:05.810Z,32.65
2018-11-21T01:03:42.538Z,30.02
2018-11-21T01:04:19.296Z,30.92
2018-11-21T01:04:56.158Z,32.05
2018-11-21T01:05:32.843Z,30.57
2018-11-21T01:06:09.527Z,27.62
2018-11-21T01:06:46.117Z,32.48
2018-11-21T01:07:24.289Z,31.42
2018-11-21T01:08:01.044Z,29.45
2018-11-21T01:08:37.688Z,30.32
2018-11-21T01:09:14.595Z,30.70
2018-11-21T01:09:51.340Z,31.10
2018-11-21T01:10:28.001Z,37.42
2018-11-21T01:11:04.740Z,30.35
2018-11-21T01:11:41.372Z,28.65
2018-11-21T01:12:17.959Z,29.72
2018-11-21T01:12:54.687Z,30.43
2018-11-21T01:13:31.404Z,32.20
2018-11-21T01:14:08.039Z,27.82
2018-11-21T01:14:44.784Z,32.05
2018-11-21T01:15:21.484Z,28.47
2018-11-21T01:15:58.100Z,29.67
2018-11-21T01:16:34.800Z,28.73
2018-11-21T01:17:11.606Z,34.35
2018-11-21T01:17:48.176Z,31.02
2018-11-21T01:18:24.845Z,32.33
2018-11-21T01:19:01.399Z,30.10
2018-11-21T01:19:38.021Z,29.80
2018-11-21T01:20:14.734Z,32.15
2018-11-21T01:20:51.265Z,37.28
2018-11-21T01:21:27.984Z,28.70
2018-11-21T01:22:04.628Z,28.77
2018-11-21T01:22:41.313Z,28.30
2018-11-21T01:23:18.967Z,31.37
2018-11-21T01:23:55.707Z,31.17
2018-11-21T01:24:32.276Z,28.20
2018-11-21T01:25:09.479Z,31.80
2018-11-21T01:25:46.094Z,29.92
2018-11-21T01:26:22.826Z,39.60
2018-11-21T01:26:59.395Z,40.58
2018-11-21T01:27:36.080Z,43.48
2018-11-21T01:28:13.138Z,36.88
2018-11-21T01:28:49.861Z,29.70
2018-11-21T01:29:26.485Z,30.70
2018-11-21T01:30:03.179Z,28.92
2018-11-21T01:30:39.915Z,29.77
2018-11-21T01:31:16.549Z,33.05
2018-11-21T01:31:53.255Z,29.32
2018-11-21T01:32:30.312Z,28.17
2018-11-21T01:33:09.749Z,31.27
2018-11-21T01:33:43.651Z,31.30
2018-11-21T01:34:20.419Z,33.63
2018-11-21T01:34:56.989Z,38.42
2018-11-21T01:35:33.712Z,31.68
2018-11-21T01:36:10.292Z,30.88
2018-11-21T01:36:47.258Z,40.75
2018-11-21T01:37:23.897Z,35.45
2018-11-21T01:38:00.498Z,35.15
2018-11-21T01:38:37.117Z,36.43
2018-11-21T01:39:13.862Z,52.00
2018-11-21T01:39:50.475Z,42.85
2018-11-21T01:40:27.153Z,41.30
2018-11-21T01:41:03.948Z,44.33
2018-11-21T01:41:40.710Z,42.85
2018-11-21T01:42:17.434Z,37.55
2018-11-21T01:42:54.140Z,169.93
2018-11-21T01:43:30.815Z,96.22
2018-11-21T01:44:08.068Z,239.88
2018-11-21T01:44:44.736Z,148.93
2018-11-21T01:45:21.445Z,100.40
2018-11-21T01:45:58.083Z,124.92
2018-11-21T01:46:34.711Z,100.83
2018-11-21T01:47:11.320Z,161.50
2018-11-21T01:47:47.950Z,141.12
2018-11-21T01:48:24.542Z,45.98
2018-11-21T01:49:01.191Z,57.27
2018-11-21T01:49:37.869Z,109.80
2018-11-21T01:50:14.590Z,39.23
2018-11-21T01:50:51.276Z,38.65
2018-11-21T01:51:27.997Z,35.85
2018-11-21T01:52:04.759Z,32.55
2018-11-21T01:52:41.441Z,36.15
2018-11-21T01:53:20.667Z,36.33
2018-11-21T01:53:57.276Z,29.82
2018-11-21T01:54:33.941Z,32.47
2018-11-21T01:55:10.751Z,38.88
2018-11-21T01:55:47.460Z,37.30
2018-11-21T01:56:24.142Z,33.08
2018-11-21T01:57:00.797Z,30.68
2018-11-21T01:57:37.478Z,31.87
2018-11-21T01:58:14.343Z,31.93
2018-11-21T01:58:51.037Z,30.37
2018-11-21T01:59:27.756Z,35.13
2018-11-21T02:00:04.628Z,33.02
2018-11-21T02:00:41.329Z,34.27
2018-11-21T02:01:18.064Z,31.48
2018-11-21T02:01:54.778Z,32.42
2018-11-21T02:02:31.541Z,40.05
2018-11-21T02:03:08.187Z,31.82
2018-11-21T02:03:44.879Z,31.40
2018-11-21T02:04:21.502Z,31.57
2018-11-21T02:04:58.146Z,31.57
2018-11-21T02:05:34.778Z,35.45
2018-11-21T02:06:11.448Z,34.50
2018-11-21T02:06:48.125Z,39.30
2018-11-21T02:07:24.781Z,38.20
2018-11-21T02:08:01.465Z,43.13
2018-11-21T02:08:38.157Z,115.47
2018-11-21T02:09:14.966Z,48.20
2018-11-21T02:09:51.558Z,34.15
2018-11-21T02:10:28.408Z,31.33
2018-11-21T02:11:05.026Z,35.20
2018-11-21T02:11:41.663Z,32.88
2018-11-21T02:12:18.331Z,29.82
2018-11-21T02:12:54.975Z,36.23
2018-11-21T02:13:31.605Z,29.55
2018-11-21T02:14:08.372Z,32.80
2018-11-21T02:14:45.065Z,40.23
2018-11-21T02:15:21.785Z,32.53
2018-11-21T02:15:58.441Z,32.90
2018-11-21T02:16:35.121Z,31.17
2018-11-21T02:17:11.878Z,34.25
2018-11-21T02:17:48.562Z,29.27
2018-11-21T02:18:25.233Z,40.52
2018-11-21T02:19:01.940Z,32.60
2018-11-21T02:19:38.649Z,28.15
2018-11-21T02:20:18.621Z,36.48
2018-11-21T02:20:55.281Z,28.32
2018-11-21T02:21:32.065Z,29.65
2018-11-21T02:22:08.764Z,29.60
2018-11-21T02:22:45.374Z,31.97
2018-11-21T02:23:22.002Z,32.13
2018-11-21T02:24:06.961Z,34.30
2018-11-21T02:24:43.627Z,30.77
2018-11-21T02:25:20.330Z,33.13
2018-11-21T02:25:57.087Z,31.57
2018-11-21T02:26:33.784Z,31.23
2018-11-21T02:27:10.629Z,30.48
2018-11-21T02:27:47.259Z,35.50
2018-11-21T02:28:23.954Z,34.43
2018-11-21T02:29:01.696Z,30.02
2018-11-21T02:29:38.452Z,34.10
2018-11-21T02:30:15.098Z,30.30
2018-11-21T02:30:51.710Z,31.25
2018-11-21T02:31:28.413Z,32.10
2018-11-21T02:32:05.187Z,28.30
2018-11-21T02:32:42.201Z,30.27
2018-11-21T02:33:18.740Z,32.60
2018-11-21T02:33:55.441Z,34.70
2018-11-21T02:34:32.126Z,29.80
2018-11-21T02:35:09.883Z,33.70
2018-11-21T02:35:46.583Z,30.75
2018-11-21T02:36:23.299Z,27.05
2018-11-21T02:36:59.942Z,29.80
2018-11-21T02:37:37.609Z,25.37
2018-11-21T02:38:14.171Z,24.40
2018-11-21T02:38:50.911Z,29.87
2018-11-21T02:39:27.480Z,26.73
2018-11-21T02:40:04.203Z,30.50
2018-11-21T02:40:43.876Z,25.80
2018-11-21T02:41:20.552Z,27.32
2018-11-21T02:41:57.671Z,27.73
2018-11-21T02:42:34.326Z,30.40
2018-11-21T02:43:10.955Z,25.97
2018-11-21T02:43:47.617Z,26.23
2018-11-21T02:44:24.239Z,26.80
2018-11-21T02:45:00.849Z,28.00
2018-11-21T02:45:37.625Z,28.95
2018-11-21T02:46:14.860Z,32.35
2018-11-21T02:46:51.523Z,28.65
2018-11-21T02:47:28.179Z,30.23
2018-11-21T02:48:04.811Z,26.17
2018-11-21T02:48:41.432Z,26.13
2018-11-21T02:49:18.204Z,27.65
2018-11-21T02:49:54.738Z,26.90
2018-11-21T02:50:31.845Z,29.98
2018-11-21T02:51:08.513Z,30.43
2018-11-21T02:51:45.160Z,26.87
2018-11-21T02:52:21.840Z,24.98
2018-11-21T02:52:58.406Z,26.05
2018-11-21T02:53:35.245Z,27.10
2018-11-21T02:54:11.942Z,24.40
2018-11-21T02:54:48.532Z,26.77
2018-11-21T02:55:25.240Z,25.12
2018-11-21T02:56:02.003Z,27.40
2018-11-21T02:57:13.448Z,27.10
2018-11-21T02:57:50.097Z,28.02
2018-11-21T02:58:26.698Z,26.37
2018-11-21T02:59:03.370Z,26.02
2018-11-21T02:59:39.961Z,29.40
2018-11-21T03:00:24.908Z,25.80
2018-11-21T03:01:01.604Z,28.07
2018-11-21T03:01:38.388Z,26.73
2018-11-21T03:02:15.252Z,25.15
2018-11-21T03:02:52.001Z,31.35
2018-11-21T03:03:28.743Z,24.75
2018-11-21T03:04:05.431Z,27.40
2018-11-21T03:04:42.290Z,33.18
2018-11-21T03:05:19.223Z,28.32
2018-11-21T03:05:55.828Z,29.30
2018-11-21T03:06:32.583Z,28.17
2018-11-21T03:07:09.452Z,31.00
2018-11-21T03:07:53.193Z,33.10
2018-11-21T03:08:29.886Z,25.30
2018-11-21T03:09:07.502Z,26.90
2018-11-21T03:09:45.032Z,29.00
2018-11-21T03:10:22.924Z,25.25
2018-11-21T03:10:59.649Z,26.48
2018-11-21T03:11:36.310Z,26.07
2018-11-21T03:12:14.282Z,31.50
2018-11-21T03:12:50.934Z,26.68
2018-11-21T03:13:28.565Z,27.95
2018-11-21T03:14:04.399Z,27.25
2018-11-21T03:14:41.047Z,25.77
2018-11-21T03:15:17.800Z,28.85
2018-11-21T03:15:54.402Z,27.87
2018-11-21T03:16:34.316Z,25.45
2018-11-21T03:17:10.968Z,27.73
2018-11-21T03:17:47.888Z,27.17
2018-11-21T03:18:24.496Z,27.00
2018-11-21T03:19:01.077Z,25.80
2018-11-21T03:19:37.699Z,26.30
2018-11-21T03:20:15.735Z,25.70
2018-11-21T03:20:52.429Z,25.25
2018-11-21T03:21:29.060Z,27.37
2018-11-21T03:22:05.738Z,33.18
2018-11-21T03:22:42.305Z,28.92
2018-11-21T03:23:19.026Z,25.40
2018-11-21T03:23:55.745Z,27.13
2018-11-21T03:24:32.524Z,25.12
2018-11-21T03:25:09.214Z,25.40
2018-11-21T03:25:45.822Z,28.20
2018-11-21T03:26:22.466Z,28.02
2018-11-21T03:26:59.264Z,27.15
2018-11-21T03:27:36.095Z,26.73
2018-11-21T03:28:13.669Z,24.35
2018-11-21T03:28:50.340Z,30.95
2018-11-21T03:29:27.053Z,23.10
2018-11-21T03:30:03.903Z,26.17
2018-11-21T03:30:40.511Z,27.02
2018-11-21T03:31:17.217Z,27.73
2018-11-21T03:31:53.927Z,29.32
2018-11-21T03:32:30.539Z,29.92
2018-11-21T03:33:07.465Z,25.25
2018-11-21T03:33:44.061Z,24.90
2018-11-21T03:34:20.647Z,24.77
2018-11-21T03:34:57.241Z,27.25
2018-11-21T03:35:33.924Z,26.12
2018-11-21T03:36:10.478Z,27.93
2018-11-21T03:36:51.111Z,26.97
2018-11-21T03:37:27.683Z,24.77
2018-11-21T03:38:04.309Z,29.23
2018-11-21T03:38:40.951Z,26.10
2018-11-21T03:39:17.562Z,26.40
2018-11-21T03:39:54.289Z,25.37
2018-11-21T03:40:30.980Z,25.27
2018-11-21T03:41:07.674Z,26.40
2018-11-21T03:41:44.344Z,28.57
2018-11-21T03:42:20.949Z,25.62
2018-11-21T03:42:57.664Z,27.98
2018-11-21T03:43:34.268Z,26.40
2018-11-21T03:44:10.929Z,26.68
2018-11-21T03:44:47.570Z,25.08
2018-11-21T03:45:24.687Z,25.25
2018-11-21T03:46:01.328Z,25.52
2018-11-21T03:46:37.983Z,27.60
2018-11-21T03:47:14.816Z,25.75
2018-11-21T03:47:51.566Z,26.27
2018-11-21T03:48:28.223Z,27.93
2018-11-21T03:49:04.939Z,28.67
2018-11-21T03:49:41.607Z,30.35
2018-11-21T03:50:18.269Z,28.85
2018-11-21T03:50:54.891Z,27.25
2018-11-21T03:51:32.143Z,27.42
2018-11-21T03:52:08.760Z,27.55
2018-11-21T03:52:45.486Z,32.28
2018-11-21T03:53:22.241Z,27.22
2018-11-21T03:53:58.735Z,28.20
2018-11-21T03:54:35.409Z,25.13
2018-11-21T03:55:12.270Z,27.85
2018-11-21T03:55:49.528Z,26.10
2018-11-21T03:56:26.245Z,26.60
2018-11-21T03:57:02.908Z,27.40
2018-11-21T03:57:39.608Z,25.10
2018-11-21T03:58:16.395Z,28.47
2018-11-21T03:58:53.095Z,29.57
2018-11-21T03:59:29.682Z,31.02
2018-11-21T04:00:06.647Z,26.42
2018-11-21T04:00:43.353Z,27.45
2018-11-21T04:01:20.081Z,25.85
2018-11-21T04:01:56.693Z,25.62
2018-11-21T04:02:33.414Z,26.73
2018-11-21T04:03:12.363Z,25.68
2018-11-21T04:03:49.058Z,26.02
2018-11-21T04:04:26.346Z,24.67
2018-11-21T04:05:02.981Z,25.37
2018-11-21T04:05:39.742Z,25.37
2018-11-21T04:06:16.354Z,24.43
2018-11-21T04:06:53.017Z,25.27
2018-11-21T04:07:29.941Z,27.42
2018-11-21T04:08:06.639Z,25.37
2018-11-21T04:08:44.467Z,27.30
2018-11-21T04:09:21.178Z,25.77
2018-11-21T04:09:57.715Z,29.37
2018-11-21T04:10:34.404Z,26.83
2018-11-21T04:11:11.063Z,28.40
2018-11-21T04:11:47.626Z,24.52
2018-11-21T04:12:24.270Z,25.23
2018-11-21T04:13:00.913Z,24.10
2018-11-21T04:13:37.651Z,22.62
2018-11-21T04:14:14.299Z,26.10
2018-11-21T04:14:50.898Z,25.40
2018-11-21T04:15:27.644Z,28.10
2018-11-21T04:16:04.337Z,24.32
2018-11-21T04:16:41.074Z,24.40
2018-11-21T04:17:17.793Z,26.20
2018-11-21T04:18:00.135Z,24.27
2018-11-21T04:18:36.808Z,24.90
2018-11-21T04:19:13.418Z,24.10
2018-11-21T04:19:50.203Z,21.95
2018-11-21T04:20:26.823Z,25.48
2018-11-21T04:21:03.496Z,24.02
2018-11-21T04:21:40.118Z,25.50
2018-11-21T04:22:16.803Z,24.80
2018-11-21T04:22:53.409Z,23.95
2018-11-21T04:23:30.023Z,23.22
2018-11-21T04:24:06.654Z,23.77
2018-11-21T04:24:43.366Z,23.95
2018-11-21T04:25:20.103Z,25.40
2018-11-21T04:25:56.772Z,23.07
2018-11-21T04:26:33.420Z,25.85
2018-11-21T04:27:10.000Z,25.10
2018-11-21T04:27:46.721Z,23.65
2018-11-21T04:28:23.369Z,26.40
2018-11-21T04:29:00.068Z,25.35
2018-11-21T04:29:36.854Z,24.10
2018-11-21T04:30:14.983Z,23.57
2018-11-21T04:30:51.583Z,26.20
2018-11-21T04:31:28.270Z,24.37
2018-11-21T04:32:04.952Z,25.37
2018-11-21T04:32:44.648Z,23.93
2018-11-21T04:33:21.378Z,23.52
2018-11-21T04:33:58.032Z,27.30
2018-11-21T04:34:34.743Z,23.77
2018-11-21T04:35:11.723Z,27.37
2018-11-21T04:35:48.376Z,25.08
2018-11-21T04:36:25.131Z,29.63
2018-11-21T04:37:01.882Z,23.27
2018-11-21T04:37:38.549Z,24.30
2018-11-21T04:38:15.216Z,24.98
2018-11-21T04:38:51.974Z,29.52
2018-11-21T04:39:28.595Z,26.45
2018-11-21T04:40:05.344Z,24.85
2018-11-21T04:40:41.968Z,24.33
2018-11-21T04:41:22.074Z,26.02
2018-11-21T04:41:58.842Z,23.60
2018-11-21T04:42:35.523Z,23.70
2018-11-21T04:43:12.232Z,24.53
2018-11-21T04:43:48.952Z,24.18
2018-11-21T04:44:25.559Z,22.93
2018-11-21T04:45:02.223Z,22.80
2018-11-21T04:45:38.909Z,23.95
2018-11-21T04:46:15.552Z,24.98
2018-11-21T04:46:52.214Z,25.10
2018-11-21T04:47:28.920Z,25.70
2018-11-21T04:48:05.603Z,24.50
2018-11-21T04:48:42.243Z,23.32
2018-11-21T04:49:18.966Z,25.32
2018-11-21T04:49:55.643Z,23.47
2018-11-21T04:50:32.298Z,30.20
2018-11-21T04:51:08.984Z,24.72
2018-11-21T04:51:45.568Z,26.23
2018-11-21T04:52:22.670Z,23.75
2018-11-21T04:52:59.243Z,28.83
2018-11-21T04:53:35.965Z,29.92
2018-11-21T04:54:14.874Z,24.43
2018-11-21T04:54:51.550Z,26.55
2018-11-21T04:55:28.175Z,25.32
2018-11-21T04:56:04.853Z,26.70
2018-11-21T04:56:41.492Z,28.47
2018-11-21T04:57:18.171Z,29.82
2018-11-21T04:57:54.830Z,26.35
2018-11-21T04:58:31.588Z,30.57
2018-11-21T04:59:08.701Z,26.55
2018-11-21T04:59:45.389Z,26.60
2018-11-21T05:00:21.994Z,25.40
2018-11-21T05:00:58.702Z,25.08
2018-11-21T05:01:35.274Z,26.37
2018-11-21T05:02:11.866Z,26.57
2018-11-21T05:02:48.471Z,26.52
2018-11-21T05:03:25.102Z,24.55
2018-11-21T05:04:01.729Z,25.47
2018-11-21T05:04:38.409Z,25.80
2018-11-21T05:05:18.391Z,24.85
2018-11-21T05:05:55.091Z,24.10
2018-11-21T05:06:31.717Z,26.12
2018-11-21T05:07:08.468Z,23.13
2018-11-21T05:07:45.180Z,24.45
2018-11-21T05:08:21.853Z,24.55
2018-11-21T05:08:58.502Z,24.65
2018-11-21T05:09:35.478Z,25.43
2018-11-21T05:10:12.241Z,22.98
2018-11-21T05:10:48.968Z,23.90
2018-11-21T05:11:25.539Z,26.57
2018-11-21T05:12:02.278Z,26.52
2018-11-21T05:12:39.157Z,24.90
2018-11-21T05:13:15.826Z,21.73
2018-11-21T05:13:53.015Z,24.67
2018-11-21T05:14:29.641Z,22.25
2018-11-21T05:15:06.267Z,22.58
2018-11-21T05:15:42.964Z,22.17
2018-11-21T05:16:19.591Z,21.70
2018-11-21T05:16:56.331Z,20.60
2018-11-21T05:17:32.990Z,21.37
2018-11-21T05:18:10.163Z,20.60
2018-11-21T05:18:46.805Z,20.48
2018-11-21T05:19:23.495Z,21.37
2018-11-21T05:20:00.205Z,20.92
2018-11-21T05:20:36.806Z,26.53
2018-11-21T05:21:13.483Z,21.57
2018-11-21T05:21:50.288Z,20.72
2018-11-21T05:22:26.916Z,21.02
2018-11-21T05:23:03.621Z,24.07
2018-11-21T05:23:40.259Z,21.73
2018-11-21T05:24:16.882Z,20.70
2018-11-21T05:24:53.530Z,28.50
2018-11-21T05:25:30.088Z,21.65
2018-11-21T05:26:06.842Z,27.75
2018-11-21T05:26:43.603Z,21.62
2018-11-21T05:27:20.231Z,21.55
2018-11-21T05:27:56.942Z,22.05
2018-11-21T05:28:33.576Z,20.60
2018-11-21T05:29:10.207Z,23.57
2018-11-21T05:29:46.870Z,21.73
2018-11-21T05:30:23.488Z,20.45
2018-11-21T05:31:02.485Z,20.45
2018-11-21T05:31:39.216Z,22.42
2018-11-21T05:32:15.838Z,23.00
2018-11-21T05:32:52.427Z,20.20
2018-11-21T05:33:29.384Z,23.27
2018-11-21T05:34:06.114Z,21.33
2018-11-21T05:34:42.769Z,22.33
2018-11-21T05:35:19.378Z,23.35
2018-11-21T05:35:56.022Z,22.15
2018-11-21T05:36:32.639Z,26.40
2018-11-21T05:37:09.646Z,21.80
2018-11-21T05:37:46.340Z,21.15
2018-11-21T05:38:22.938Z,26.10
2018-11-21T05:38:59.660Z,21.82
2018-11-21T05:39:36.397Z,22.32
2018-11-21T05:40:13.456Z,23.97
2018-11-21T05:40:50.056Z,23.75
2018-11-21T05:41:26.605Z,24.00
2018-11-21T05:42:03.334Z,21.97
2018-11-21T05:42:40.004Z,22.33
2018-11-21T05:43:16.769Z,25.17
2018-11-21T05:43:53.408Z,30.02
2018-11-21T05:44:31.387Z,23.23
2018-11-21T05:45:07.598Z,23.37
2018-11-21T05:45:44.283Z,21.13
2018-11-21T05:46:20.868Z,21.73
2018-11-21T05:46:57.541Z,22.58
2018-11-21T05:47:34.131Z,20.77
2018-11-21T05:48:10.768Z,21.00
2018-11-21T05:48:47.374Z,22.07
2018-11-21T05:49:24.082Z,22.02
2018-11-21T05:50:00.786Z,20.60
2018-11-21T05:50:37.464Z,21.30
2018-11-21T05:51:14.190Z,22.90
2018-11-21T05:51:50.856Z,22.93
2018-11-21T05:52:27.643Z,23.10
2018-11-21T05:53:04.331Z,22.67
2018-11-21T05:53:41.156Z,22.50
2018-11-21T05:54:18.262Z,24.03
2018-11-21T05:54:55.070Z,22.77
2018-11-21T05:55:31.602Z,20.80
2018-11-21T05:56:09.792Z,20.70
2018-11-21T05:56:46.476Z,20.75
2018-11-21T05:57:23.277Z,20.20
2018-11-21T05:57:59.960Z,21.33
2018-11-21T05:58:36.593Z,22.53
2018-11-21T05:59:13.293Z,20.70
2018-11-21T05:59:50.029Z,21.45
2018-11-21T06:00:26.715Z,20.25
2018-11-21T06:01:03.284Z,20.97
2018-11-21T06:01:40.452Z,20.68
2018-11-21T06:02:17.214Z,22.10
2018-11-21T06:02:53.814Z,22.48
2018-11-21T06:03:30.522Z,31.52
2018-11-21T06:04:07.171Z,21.00
2018-11-21T06:04:44.827Z,21.93
2018-11-21T06:05:21.463Z,20.90
2018-11-21T06:05:58.158Z,23.55
2018-11-21T06:06:34.862Z,21.27
2018-11-21T06:07:11.568Z,22.30
2018-11-21T06:07:48.220Z,20.80
2018-11-21T06:08:24.911Z,20.45
2018-11-21T06:09:04.515Z,22.80
2018-11-21T06:09:41.159Z,20.32
2018-11-21T06:10:17.854Z,20.87
2018-11-21T06:10:54.513Z,20.52
2018-11-21T06:11:31.207Z,21.10
2018-11-21T06:12:08.004Z,21.55
2018-11-21T06:12:45.127Z,20.90
2018-11-21T06:13:21.751Z,24.60
2018-11-21T06:13:58.396Z,20.50
2018-11-21T06:14:35.056Z,21.60
2018-11-21T06:15:12.244Z,21.50
2018-11-21T06:15:49.187Z,20.80
2018-11-21T06:16:25.911Z,22.73
2018-11-21T06:17:02.580Z,22.20
2018-11-21T06:17:39.474Z,21.40
2018-11-21T06:18:16.050Z,21.00
2018-11-21T06:18:52.944Z,22.67
2018-11-21T06:19:29.631Z,20.90
2018-11-21T06:20:06.657Z,21.42
2018-11-21T06:20:43.388Z,21.20
2018-11-21T06:21:19.950Z,22.32
2018-11-21T06:21:56.639Z,21.20
2018-11-21T06:22:33.417Z,20.80
2018-11-21T06:23:10.161Z,21.80
2018-11-21T06:23:46.842Z,22.22
2018-11-21T06:24:23.493Z,21.20
2018-11-21T06:25:00.158Z,23.00
2018-11-21T06:25:36.788Z,21.25
2018-11-21T06:26:13.931Z,20.05
2018-11-21T06:27:01.272Z,22.20
2018-11-21T06:27:38.311Z,21.20
2018-11-21T06:28:14.966Z,20.55
2018-11-21T06:28:51.644Z,26.27
2018-11-21T06:29:28.529Z,20.52
2018-11-21T06:30:05.319Z,20.95
2018-11-21T06:30:42.001Z,22.63
2018-11-21T06:31:18.758Z,20.82
2018-11-21T06:31:55.611Z,21.05
2018-11-21T06:32:32.214Z,22.15
2018-11-21T06:33:09.267Z,20.90
2018-11-21T06:33:45.833Z,20.57
2018-11-21T06:34:22.459Z,22.75
2018-11-21T06:34:59.103Z,22.85
2018-11-21T06:35:35.715Z,21.90
2018-11-21T06:36:12.698Z,26.45
2018-11-21T06:36:49.503Z,20.70
2018-11-21T06:37:29.134Z,22.62
2018-11-21T06:38:05.738Z,21.65
2018-11-21T06:38:42.400Z,21.20
2018-11-21T06:39:19.678Z,22.17
2018-11-21T06:39:56.281Z,23.45
2018-11-21T06:40:33.065Z,25.02
2018-11-21T06:41:09.619Z,22.47
2018-11-21T06:41:46.292Z,21.02
2018-11-21T06:42:22.957Z,23.00
2018-11-21T06:43:00.778Z,23.30
2018-11-21T06:43:37.488Z,21.25
2018-11-21T06:44:14.330Z,23.32
2018-11-21T06:44:50.997Z,21.73
2018-11-21T06:45:28.779Z,22.62
2018-11-21T06:46:05.432Z,21.30
2018-11-21T06:46:42.367Z,21.00
2018-11-21T06:47:19.278Z,22.73
2018-11-21T06:47:56.981Z,21.60
2018-11-21T06:48:33.574Z,26.70
2018-11-21T06:49:10.579Z,21.50
2018-11-21T06:49:47.139Z,21.47
2018-11-21T06:50:23.911Z,21.60
2018-11-21T06:51:00.607Z,22.23
2018-11-21T06:51:37.210Z,22.30
2018-11-21T06:52:13.931Z,20.77
2018-11-21T06:52:50.591Z,23.10
2018-11-21T06:53:27.342Z,21.15
2018-11-21T06:54:04.010Z,20.90
2018-11-21T06:54:40.611Z,22.50
2018-11-21T06:55:17.361Z,20.92
2018-11-21T06:55:53.946Z,21.70
2018-11-21T06:56:30.841Z,20.37
2018-11-21T06:57:07.661Z,21.65
2018-11-21T06:57:44.332Z,21.80
2018-11-21T06:58:21.089Z,22.25
2018-11-21T06:58:57.758Z,23.77
2018-11-21T06:59:34.369Z,20.90
2018-11-21T07:00:12.430Z,22.20
2018-11-21T07:00:49.121Z,22.42
2018-11-21T07:01:25.665Z,22.75
2018-11-21T07:02:02.398Z,22.37
2018-11-21T07:02:39.643Z,22.47
2018-11-21T07:03:16.340Z,22.87
2018-11-21T07:03:52.987Z,28.70
2018-11-21T07:04:29.745Z,24.10
2018-11-21T07:05:06.580Z,20.60
2018-11-21T07:05:43.223Z,21.77
2018-11-21T07:06:19.973Z,21.75
2018-11-21T07:06:56.672Z,21.80
2018-11-21T07:07:33.344Z,26.37
2018-11-21T07:08:10.025Z,21.20
2018-11-21T07:08:46.746Z,21.33
2018-11-21T07:09:23.483Z,22.15
2018-11-21T07:10:00.153Z,20.80
2018-11-21T07:10:36.898Z,21.63
2018-11-21T07:11:13.608Z,23.83
2018-11-21T07:11:50.307Z,23.75
2018-11-21T07:12:26.946Z,21.75
2018-11-21T07:13:03.683Z,22.87
2018-11-21T07:13:40.358Z,20.50
2018-11-21T07:14:17.021Z,23.22
2018-11-21T07:14:53.657Z,24.83
2018-11-21T07:15:30.795Z,19.90
2018-11-21T07:16:07.354Z,20.82
2018-11-21T07:16:44.348Z,22.10
2018-11-21T07:17:20.916Z,21.13
2018-11-21T07:17:57.596Z,20.53
2018-11-21T07:18:34.228Z,20.80
2018-11-21T07:19:10.958Z,20.15
2018-11-21T07:19:47.750Z,19.85
2018-11-21T07:20:24.339Z,22.85
2018-11-21T07:21:01.277Z,21.00
2018-11-21T07:21:37.918Z,20.00
2018-11-21T07:22:14.568Z,20.68
2018-11-21T07:22:51.229Z,21.42
2018-11-21T07:23:27.818Z,21.57
2018-11-21T07:24:04.972Z,19.80
2018-11-21T07:24:41.608Z,20.90
2018-11-21T07:25:22.985Z,21.60
2018-11-21T07:25:59.630Z,27.62
2018-11-21T07:26:36.320Z,23.45
2018-11-21T07:27:12.953Z,21.23
2018-11-21T07:27:49.606Z,22.40
2018-11-21T07:28:26.219Z,23.55
2018-11-21T07:29:02.951Z,20.33
2018-11-21T07:29:39.589Z,20.90
2018-11-21T07:30:17.158Z,19.57
2018-11-21T07:30:53.787Z,23.47
2018-11-21T07:31:30.400Z,21.20
2018-11-21T07:32:07.358Z,20.10
2018-11-21T07:32:44.168Z,21.87
2018-11-21T07:33:20.819Z,20.65
2018-11-21T07:33:57.453Z,21.30
2018-11-21T07:34:34.060Z,21.40
2018-11-21T07:35:14.664Z,21.93
2018-11-21T07:35:47.775Z,20.53
2018-11-21T07:36:24.556Z,21.77
2018-11-21T07:37:01.305Z,20.20
2018-11-21T07:37:37.968Z,19.87
2018-11-21T07:38:15.031Z,21.25
2018-11-21T07:38:52.017Z,19.70
2018-11-21T07:39:28.605Z,19.87
2018-11-21T07:40:05.276Z,20.60
2018-11-21T07:40:41.939Z,21.07
2018-11-21T07:41:18.551Z,20.50
2018-11-21T07:41:55.222Z,31.85
2018-11-21T07:42:31.884Z,21.60
2018-11-21T07:43:08.928Z,20.10
2018-11-21T07:43:45.558Z,21.45
2018-11-21T07:44:22.164Z,20.60
2018-11-21T07:44:58.859Z,20.92
2018-11-21T07:45:35.407Z,21.80
2018-11-21T07:46:12.137Z,21.15
2018-11-21T07:46:48.725Z,20.80
2018-11-21T07:47:26.665Z,21.15
2018-11-21T07:48:01.981Z,19.75
2018-11-21T07:48:38.667Z,20.17
2018-11-21T07:49:15.405Z,20.85
2018-11-21T07:49:54.278Z,19.50
2018-11-21T07:50:30.817Z,21.37
2018-11-21T07:51:07.539Z,20.88
2018-11-21T07:51:44.177Z,20.70
2018-11-21T07:52:20.857Z,25.50
2018-11-21T07:52:57.569Z,20.00
2018-11-21T07:53:34.278Z,22.42
2018-11-21T07:54:10.924Z,20.50
2018-11-21T07:54:50.555Z,23.90
2018-11-21T07:55:27.229Z,21.27